Wetterdaten: Woche 31.05.04 - 06.06.04 (KW23)
Datum Zeit Temperatur Luftfeuchte Luftdruck Regenmenge Wind Richtung Taupunkt Windchill
31.05.2004 00:00 16.9 C 59 % 1019.8 hPa 0.0 l/m 22.9 km/h (4 Bft) NW 8.9 C 16.9 C
31.05.2004 01:00 16.0 C 67 % 1020.0 hPa 0.0 l/m 10.0 km/h (2 Bft) NW 9.9 C 16.0 C
31.05.2004 02:00 14.8 C 85 % 1020.1 hPa 0.0 l/m 7.9 km/h (2 Bft) NW 12.2 C 14.8 C
31.05.2004 03:00 14.1 C 94 % 1020.2 hPa 0.7 l/m 3.1 km/h (1 Bft) NW 13.1 C 14.1 C
31.05.2004 04:00 13.8 C 96 % 1020.2 hPa 1.0 l/m 0.8 km/h (0 Bft) SO 13.2 C 13.8 C
31.05.2004 05:00 13.6 C 99 % 1020.3 hPa 0.7 l/m 1.7 km/h (1 Bft) SO 13.4 C 13.6 C
31.05.2004 06:00 13.6 C 100 % 1020.3 hPa 0.0 l/m 1.5 km/h (1 Bft) O-SO 13.6 C 13.6 C
31.05.2004 07:00 14.2 C 100 % 1020.2 hPa 0.0 l/m 1.6 km/h (1 Bft) SO 14.2 C 14.2 C
31.05.2004 08:00 14.5 C 99 % 1020.2 hPa 0.0 l/m 1.7 km/h (1 Bft) SO 14.4 C 14.5 C
31.05.2004 09:00 15.4 C 92 % 1020.0 hPa 0.3 l/m 1.3 km/h (1 Bft) NW 14.1 C 15.4 C
31.05.2004 10:00 15.5 C 83 % 1020.0 hPa 0.0 l/m 1.8 km/h (1 Bft) SO 12.6 C 15.5 C
31.05.2004 11:00 16.0 C 78 % 1020.0 hPa 0.0 l/m 2.9 km/h (1 Bft) NW 12.2 C 16.0 C
31.05.2004 12:00 17.7 C 66 % 1019.7 hPa 0.0 l/m 7.5 km/h (2 Bft) NW 11.2 C 17.7 C
31.05.2004 13:00 19.0 C 51 % 1019.2 hPa 0.0 l/m 12.1 km/h (2 Bft) NW 8.7 C 19.0 C
31.05.2004 14:00 19.3 C 47 % 1019.0 hPa 0.0 l/m 8.5 km/h (2 Bft) NW 7.7 C 19.3 C
31.05.2004 15:00 19.7 C 46 % 1018.4 hPa 0.0 l/m 3.5 km/h (1 Bft) NW 7.6 C 19.7 C
31.05.2004 16:00 18.2 C 48 % 1018.6 hPa 0.0 l/m 5.8 km/h (1 Bft) NW 7.1 C 18.2 C
31.05.2004 17:00 18.5 C 52 % 1018.6 hPa 0.0 l/m 4.6 km/h (1 Bft) O-SO 8.4 C 18.5 C
31.05.2004 18:00 19.3 C 52 % 1018.5 hPa 0.0 l/m 8.3 km/h (2 Bft) SO 9.0 C 19.3 C
31.05.2004 19:00 17.4 C 60 % 1018.7 hPa 0.0 l/m 11.6 km/h (2 Bft) O-SO 9.4 C 17.4 C
31.05.2004 20:00 16.2 C 67 % 1018.9 hPa 0.0 l/m 9.4 km/h (2 Bft) O-SO 10.1 C 16.2 C
31.05.2004 21:00 14.9 C 74 % 1019.5 hPa 0.0 l/m 2.9 km/h (1 Bft) O-SO 10.2 C 14.9 C
31.05.2004 22:00 13.4 C 83 % 1020.3 hPa 0.7 l/m 0.8 km/h (0 Bft) O-NO 10.5 C 13.4 C
31.05.2004 23:00 12.6 C 96 % 1020.4 hPa 0.3 l/m 3.0 km/h (1 Bft) O-SO 12.0 C 12.6 C
01.06.2004 00:00 12.2 C 99 % 1020.5 hPa 0.0 l/m 3.9 km/h (1 Bft) O-SO 12.1 C 12.2 C
01.06.2004 01:00 11.9 C 100 % 1020.0 hPa 0.0 l/m 1.8 km/h (1 Bft) O-SO 11.9 C 11.9 C
01.06.2004 02:00 11.1 C 100 % 1019.6 hPa 0.0 l/m 4.5 km/h (1 Bft) O-SO 11.1 C 11.1 C
01.06.2004 03:00 11.0 C 100 % 1019.4 hPa 0.0 l/m 0.0 km/h (0 Bft) N 11.0 C 11.0 C
01.06.2004 04:00 11.2 C 100 % 1018.5 hPa 0.0 l/m 0.9 km/h (0 Bft) O-SO 11.2 C 11.2 C
01.06.2004 05:00 11.3 C 100 % 1018.5 hPa 0.0 l/m 0.0 km/h (0 Bft) N 11.3 C 11.3 C
01.06.2004 06:00 11.6 C 100 % 1018.5 hPa 0.0 l/m 0.0 km/h (0 Bft) N 11.6 C 11.6 C
01.06.2004 07:00 12.3 C 100 % 1018.4 hPa 0.0 l/m 0.0 km/h (0 Bft) N 12.3 C 12.3 C
01.06.2004 08:00 13.0 C 100 % 1018.3 hPa 0.7 l/m 0.0 km/h (0 Bft) N 13.0 C 13.0 C
01.06.2004 09:00 13.6 C 97 % 1018.2 hPa 0.3 l/m 0.0 km/h (0 Bft) N 13.2 C 13.6 C
01.06.2004 10:00 14.1 C 94 % 1018.1 hPa 0.7 l/m 0.5 km/h (0 Bft) N-NW 13.1 C 14.1 C
01.06.2004 11:00 14.4 C 94 % 1017.1 hPa 0.3 l/m 0.5 km/h (0 Bft) N-NW 13.4 C 14.4 C
01.06.2004 12:00 14.7 C 91 % 1017.0 hPa 1.0 l/m 0.1 km/h (0 Bft) N 13.2 C 14.7 C
01.06.2004 13:00 14.7 C 92 % 1017.0 hPa 0.3 l/m 0.9 km/h (0 Bft) W-NW 13.4 C 14.7 C
01.06.2004 14:00 14.9 C 91 % 1016.4 hPa 0.3 l/m 1.5 km/h (1 Bft) O-SO 13.4 C 14.9 C
01.06.2004 15:00 14.8 C 92 % 1016.0 hPa 0.3 l/m 0.5 km/h (0 Bft) N-NO 13.5 C 14.8 C
01.06.2004 16:00 14.0 C 97 % 1016.1 hPa 1.7 l/m 0.3 km/h (0 Bft) S 13.5 C 14.0 C
01.06.2004 17:00 14.0 C 99 % 1016.1 hPa 1.0 l/m 0.4 km/h (0 Bft) NW 13.8 C 14.0 C
01.06.2004 18:00 13.9 C 98 % 1016.1 hPa 0.0 l/m 1.0 km/h (0 Bft) SO 13.7 C 13.9 C
01.06.2004 19:00 13.9 C 98 % 1016.1 hPa 0.0 l/m 0.4 km/h (0 Bft) SO 13.5 C 13.9 C
01.06.2004 20:00 13.8 C 98 % 1016.1 hPa 0.0 l/m 0.3 km/h (0 Bft) SO 13.4 C 13.8 C
01.06.2004 21:00 13.4 C 100 % 1016.5 hPa 0.7 l/m 1.5 km/h (1 Bft) SO 13.4 C 13.4 C
01.06.2004 22:00 13.4 C 100 % 1017.2 hPa 0.0 l/m 0.0 km/h (0 Bft) N 13.3 C 13.4 C
01.06.2004 23:00 13.2 C 100 % 1017.4 hPa 2.3 l/m 0.0 km/h (0 Bft) N 13.2 C 13.2 C
02.06.2004 00:00 13.1 C 100 % 1018.1 hPa 1.3 l/m 0.0 km/h (0 Bft) N 13.1 C 13.1 C
02.06.2004 01:00 13.0 C 100 % 1017.3 hPa 0.3 l/m 0.0 km/h (0 Bft) N 13.0 C 13.0 C
02.06.2004 02:00 13.0 C 100 % 1018.1 hPa 0.0 l/m 0.0 km/h (0 Bft) N 13.0 C 13.0 C
02.06.2004 03:00 12.4 C 100 % 1018.4 hPa 0.0 l/m 0.0 km/h (0 Bft) N 12.4 C 12.4 C
02.06.2004 04:00 12.2 C 100 % 1018.4 hPa 0.0 l/m 0.4 km/h (0 Bft) O-SO 12.2 C 12.2 C
02.06.2004 05:00 11.2 C 100 % 1019.0 hPa 0.0 l/m 0.0 km/h (0 Bft) N 11.2 C 11.2 C
02.06.2004 06:00 11.2 C 100 % 1019.6 hPa 0.0 l/m 0.4 km/h (0 Bft) NW 11.2 C 11.2 C
02.06.2004 07:00 11.5 C 100 % 1019.5 hPa 0.0 l/m 0.4 km/h (0 Bft) NW 11.5 C 11.5 C
02.06.2004 08:00 12.7 C 100 % 1019.9 hPa 0.0 l/m 0.4 km/h (0 Bft) NW 12.7 C 12.7 C
02.06.2004 09:00 13.6 C 98 % 1020.3 hPa 0.0 l/m 1.0 km/h (0 Bft) W-NW 13.3 C 13.6 C
02.06.2004 10:00 15.1 C 87 % 1020.0 hPa 0.0 l/m 1.5 km/h (1 Bft) NW 12.9 C 15.1 C
02.06.2004 11:00 16.2 C 78 % 1019.2 hPa 0.0 l/m 0.4 km/h (0 Bft) NO 12.3 C 16.2 C
02.06.2004 12:00 17.2 C 73 % 1018.8 hPa 0.0 l/m 0.1 km/h (0 Bft) N 12.4 C 17.2 C
02.06.2004 13:00 17.5 C 69 % 1018.7 hPa 0.0 l/m 1.4 km/h (1 Bft) NO 11.7 C 17.5 C
02.06.2004 14:00 18.3 C 66 % 1018.6 hPa 0.0 l/m 6.0 km/h (2 Bft) NW 11.8 C 18.3 C
02.06.2004 15:00 19.3 C 57 % 1017.4 hPa 0.0 l/m 10.1 km/h (2 Bft) NW 10.5 C 19.3 C
02.06.2004 16:00 19.4 C 61 % 1017.4 hPa 0.0 l/m 4.6 km/h (1 Bft) NW 11.5 C 19.4 C
02.06.2004 17:00 18.5 C 67 % 1017.6 hPa 0.0 l/m 6.8 km/h (2 Bft) S-SO 12.3 C 18.5 C
02.06.2004 18:00 16.6 C 78 % 1017.8 hPa 0.7 l/m 4.2 km/h (1 Bft) NW 12.7 C 16.6 C
02.06.2004 19:00 15.4 C 92 % 1018.0 hPa 1.3 l/m 0.1 km/h (0 Bft) N 14.0 C 15.4 C
02.06.2004 20:00 14.3 C 98 % 1018.7 hPa 8.3 l/m 0.2 km/h (0 Bft) NW 14.0 C 14.3 C
02.06.2004 21:00 13.6 C 99 % 1019.2 hPa 1.3 l/m 0.1 km/h (0 Bft) N 13.5 C 13.6 C
02.06.2004 22:00 13.0 C 100 % 1019.7 hPa 2.3 l/m 0.6 km/h (0 Bft) O 13.0 C 13.0 C
02.06.2004 23:00 13.0 C 100 % 1020.4 hPa 2.3 l/m 6.8 km/h (2 Bft) NW 13.0 C 13.0 C
03.06.2004 00:00 12.9 C 100 % 1019.8 hPa 4.7 l/m 0.7 km/h (0 Bft) NW 12.9 C 12.9 C
03.06.2004 01:00 12.7 C 100 % 1019.9 hPa 4.7 l/m 0.4 km/h (0 Bft) W-NW 12.7 C 12.7 C
03.06.2004 02:00 12.2 C 100 % 1020.5 hPa 1.3 l/m 0.1 km/h (0 Bft) N 12.2 C 12.2 C
03.06.2004 03:00 12.3 C 100 % 1020.5 hPa 1.3 l/m 9.2 km/h (2 Bft) NW 12.3 C 12.3 C
03.06.2004 04:00 12.0 C 100 % 1020.5 hPa 2.3 l/m 1.8 km/h (1 Bft) NW 12.0 C 12.0 C
03.06.2004 05:00 11.9 C 100 % 1020.5 hPa 1.3 l/m 0.0 km/h (0 Bft) N 11.9 C 11.9 C
03.06.2004 06:00 11.9 C 100 % 1020.5 hPa 2.0 l/m 0.0 km/h (0 Bft) N 11.9 C 11.9 C
03.06.2004 07:00 12.0 C 100 % 1021.5 hPa 1.0 l/m 0.8 km/h (0 Bft) O-SO 12.0 C 12.0 C
03.06.2004 08:00 12.2 C 100 % 1021.7 hPa 1.7 l/m 0.9 km/h (0 Bft) O-SO 12.2 C 12.2 C
03.06.2004 09:00 12.3 C 100 % 1022.5 hPa 0.0 l/m 0.0 km/h (0 Bft) N 12.3 C 12.3 C
03.06.2004 10:00 13.3 C 100 % 1022.4 hPa 0.3 l/m 0.4 km/h (0 Bft) W-NW 13.3 C 13.3 C
03.06.2004 11:00 13.2 C 99 % 1022.4 hPa 1.0 l/m 1.4 km/h (1 Bft) NW 13.1 C 13.2 C
03.06.2004 12:00 13.7 C 97 % 1022.6 hPa 1.7 l/m 6.8 km/h (2 Bft) W-NW 13.3 C 13.7 C
03.06.2004 13:00 14.3 C 99 % 1023.3 hPa 0.0 l/m 0.6 km/h (0 Bft) NW 14.1 C 14.3 C
03.06.2004 14:00 15.4 C 93 % 1023.1 hPa 0.3 l/m 0.8 km/h (0 Bft) W 14.4 C 15.4 C
03.06.2004 15:00 14.5 C 98 % 1023.3 hPa 0.7 l/m 0.1 km/h (0 Bft) N 14.1 C 14.5 C
03.06.2004 16:00 14.6 C 100 % 1023.3 hPa 0.3 l/m 0.6 km/h (0 Bft) O-SO 14.6 C 14.6 C
03.06.2004 17:00 14.0 C 100 % 1023.3 hPa 0.0 l/m 1.4 km/h (1 Bft) SO 14.0 C 14.0 C
03.06.2004 18:00 13.0 C 100 % 1023.6 hPa 0.0 l/m 5.6 km/h (1 Bft) SO 13.0 C 13.0 C
03.06.2004 19:00 12.9 C 100 % 1024.5 hPa 0.0 l/m 2.4 km/h (1 Bft) SO 12.9 C 12.9 C
03.06.2004 20:00 12.6 C 100 % 1024.6 hPa 0.7 l/m 4.0 km/h (1 Bft) O-SO 12.6 C 12.6 C
03.06.2004 21:00 12.4 C 100 % 1024.6 hPa 0.0 l/m 2.4 km/h (1 Bft) SO 12.4 C 12.4 C
03.06.2004 22:00 12.2 C 100 % 1025.5 hPa 0.0 l/m 3.1 km/h (1 Bft) O-SO 12.2 C 12.2 C
03.06.2004 23:00 12.0 C 100 % 1025.0 hPa 0.0 l/m 3.6 km/h (1 Bft) SO 12.0 C 12.0 C
04.06.2004 00:00 12.0 C 100 % 1024.7 hPa 0.0 l/m 1.9 km/h (1 Bft) O-SO 12.0 C 12.0 C
04.06.2004 01:00 11.9 C 100 % 1024.7 hPa 0.0 l/m 1.7 km/h (1 Bft) O-SO 11.9 C 11.9 C
04.06.2004 02:00 11.8 C 100 % 1024.7 hPa 0.0 l/m 0.6 km/h (0 Bft) O-SO 11.8 C 11.8 C
04.06.2004 03:00 11.9 C 100 % 1023.9 hPa 0.0 l/m 0.3 km/h (0 Bft) O-SO 11.9 C 11.9 C
04.06.2004 04:00 11.9 C 100 % 1023.6 hPa 0.0 l/m 0.3 km/h (0 Bft) O-SO 11.9 C 11.9 C
04.06.2004 05:00 11.9 C 100 % 1023.6 hPa 0.0 l/m 0.0 km/h (0 Bft) N 11.9 C 11.9 C
04.06.2004 06:00 12.1 C 100 % 1023.6 hPa 0.0 l/m 0.0 km/h (0 Bft) N 12.1 C 12.1 C
04.06.2004 07:00 12.6 C 100 % 1023.5 hPa 0.0 l/m 0.0 km/h (0 Bft) N 12.6 C 12.6 C
04.06.2004 08:00 13.2 C 100 % 1023.4 hPa 0.0 l/m 0.5 km/h (0 Bft) SO 13.2 C 13.2 C
04.06.2004 09:00 14.0 C 100 % 1023.3 hPa 0.0 l/m 0.1 km/h (0 Bft) N 14.0 C 14.0 C
04.06.2004 10:00 15.0 C 96 % 1023.1 hPa 0.0 l/m 0.1 km/h (0 Bft) N 14.3 C 15.0 C
04.06.2004 11:00 15.8 C 87 % 1022.4 hPa 0.3 l/m 1.4 km/h (1 Bft) O-SO 13.6 C 15.8 C
04.06.2004 12:00 17.0 C 80 % 1021.9 hPa 0.0 l/m 5.1 km/h (1 Bft) O-SO 13.5 C 17.0 C
04.06.2004 13:00 18.7 C 72 % 1020.7 hPa 0.0 l/m 4.7 km/h (1 Bft) O-SO 13.4 C 18.7 C
04.06.2004 14:00 18.6 C 71 % 1019.8 hPa 0.0 l/m 0.6 km/h (0 Bft) NW 13.1 C 18.6 C
04.06.2004 15:00 18.4 C 70 % 1019.6 hPa 0.0 l/m 0.2 km/h (0 Bft) N-NW 12.8 C 18.4 C
04.06.2004 16:00 17.2 C 71 % 1019.7 hPa 0.3 l/m 3.0 km/h (1 Bft) NW 12.0 C 17.2 C
04.06.2004 17:00 16.0 C 87 % 1019.1 hPa 0.0 l/m 0.0 km/h (0 Bft) N 13.8 C 16.0 C
04.06.2004 18:00 15.8 C 91 % 1019.1 hPa 0.3 l/m 0.9 km/h (0 Bft) O-SO 14.4 C 15.8 C
04.06.2004 19:00 15.2 C 95 % 1019.0 hPa 0.3 l/m 0.8 km/h (0 Bft) O-SO 14.5 C 15.2 C
04.06.2004 20:00 14.7 C 97 % 1019.1 hPa 0.0 l/m 1.1 km/h (1 Bft) O-SO 14.3 C 14.7 C
04.06.2004 21:00 14.3 C 97 % 1019.6 hPa 0.0 l/m 0.3 km/h (0 Bft) NW 13.9 C 14.3 C
04.06.2004 22:00 14.0 C 98 % 1020.2 hPa 0.0 l/m 1.1 km/h (0 Bft) NW 13.6 C 14.0 C
04.06.2004 23:00 13.8 C 96 % 1020.3 hPa 0.3 l/m 0.5 km/h (0 Bft) O-SO 13.1 C 13.8 C
05.06.2004 00:00 13.4 C 99 % 1019.9 hPa 0.0 l/m 1.2 km/h (1 Bft) SO 13.1 C 13.4 C
05.06.2004 01:00 13.1 C 100 % 1019.3 hPa 0.0 l/m 3.8 km/h (1 Bft) SO 13.0 C 13.1 C
05.06.2004 02:00 13.1 C 100 % 1019.3 hPa 0.0 l/m 0.7 km/h (0 Bft) SO 13.1 C 13.1 C
05.06.2004 03:00 13.1 C 99 % 1018.5 hPa 0.0 l/m 0.4 km/h (0 Bft) NW 13.0 C 13.1 C
05.06.2004 04:00 13.1 C 98 % 1018.3 hPa 0.0 l/m 0.7 km/h (0 Bft) N-NW 12.8 C 13.1 C
05.06.2004 05:00 13.3 C 96 % 1018.2 hPa 0.0 l/m 3.4 km/h (1 Bft) NW 12.6 C 13.3 C
05.06.2004 06:00 13.4 C 89 % 1018.2 hPa 0.0 l/m 2.5 km/h (1 Bft) NW 11.7 C 13.4 C
05.06.2004 07:00 13.5 C 89 % 1018.2 hPa 0.0 l/m 2.3 km/h (1 Bft) W-NW 11.7 C 13.5 C
05.06.2004 08:00 13.8 C 87 % 1018.2 hPa 0.0 l/m 5.9 km/h (2 Bft) NW 11.7 C 13.8 C
05.06.2004 09:00 14.5 C 83 % 1017.9 hPa 0.0 l/m 8.0 km/h (2 Bft) NW 11.7 C 14.5 C
05.06.2004 10:00 15.0 C 80 % 1017.1 hPa 0.0 l/m 8.0 km/h (2 Bft) NW 11.5 C 15.0 C
05.06.2004 11:00 16.0 C 75 % 1016.8 hPa 0.0 l/m 5.0 km/h (1 Bft) W-NW 11.5 C 16.0 C
05.06.2004 12:00 16.2 C 73 % 1016.8 hPa 0.0 l/m 6.9 km/h (2 Bft) NW 11.4 C 16.2 C
05.06.2004 13:00 16.9 C 73 % 1016.3 hPa 0.0 l/m 7.8 km/h (2 Bft) NW 12.1 C 16.9 C
05.06.2004 14:00 17.2 C 65 % 1015.6 hPa 0.0 l/m 18.2 km/h (3 Bft) NW 10.6 C 17.2 C
05.06.2004 15:00 16.9 C 70 % 1015.7 hPa 1.0 l/m 19.4 km/h (3 Bft) NW 11.2 C 16.9 C
05.06.2004 16:00 15.0 C 93 % 1016.1 hPa 1.3 l/m 5.2 km/h (1 Bft) NW 13.9 C 15.0 C
05.06.2004 17:00 14.9 C 98 % 1016.2 hPa 0.0 l/m 0.0 km/h (0 Bft) N 14.5 C 14.9 C
05.06.2004 18:00 14.4 C 97 % 1017.0 hPa 0.0 l/m 0.3 km/h (0 Bft) NW 13.9 C 14.4 C
05.06.2004 19:00 14.6 C 94 % 1017.3 hPa 0.0 l/m 0.0 km/h (0 Bft) N 13.7 C 14.6 C
05.06.2004 20:00 14.3 C 96 % 1018.1 hPa 0.0 l/m 1.7 km/h (1 Bft) O-SO 13.7 C 14.3 C
05.06.2004 21:00 13.6 C 99 % 1018.9 hPa 0.0 l/m 1.7 km/h (1 Bft) O-SO 13.4 C 13.6 C
05.06.2004 22:00 12.7 C 99 % 1019.5 hPa 0.0 l/m 2.7 km/h (1 Bft) O-SO 12.6 C 12.7 C
05.06.2004 23:00 12.4 C 100 % 1019.9 hPa 0.0 l/m 0.1 km/h (0 Bft) O-SO 12.4 C 12.4 C
06.06.2004 00:00 12.1 C 100 % 1019.4 hPa 0.0 l/m 0.4 km/h (0 Bft) O-SO 12.1 C 12.1 C
06.06.2004 01:00 11.3 C 100 % 1019.6 hPa 0.0 l/m 0.0 km/h (0 Bft) N 11.3 C 11.3 C
06.06.2004 02:00 10.6 C 100 % 1019.7 hPa 0.0 l/m 0.0 km/h (0 Bft) N 10.6 C 10.6 C
06.06.2004 03:00 10.1 C 100 % 1019.7 hPa 0.0 l/m 0.0 km/h (0 Bft) N 10.1 C 10.1 C
06.06.2004 04:00 9.2 C 100 % 1019.8 hPa 0.0 l/m 0.0 km/h (0 Bft) N 9.2 C 9.2 C
06.06.2004 05:00 9.2 C 100 % 1019.8 hPa 0.0 l/m 0.0 km/h (0 Bft) N 9.2 C 9.2 C
06.06.2004 06:00 8.8 C 100 % 1019.9 hPa 0.0 l/m 0.1 km/h (0 Bft) S 8.8 C 8.8 C
06.06.2004 07:00 9.3 C 100 % 1020.7 hPa 0.0 l/m 0.7 km/h (0 Bft) W-NW 9.3 C 9.2 C
06.06.2004 08:00 10.9 C 98 % 1020.6 hPa 0.0 l/m 0.3 km/h (0 Bft) W 10.6 C 10.9 C
06.06.2004 09:00 13.8 C 85 % 1020.3 hPa 0.0 l/m 4.2 km/h (1 Bft) O-SO 11.2 C 13.8 C
06.06.2004 10:00 16.2 C 72 % 1019.9 hPa 0.0 l/m 13.6 km/h (3 Bft) O-SO 11.1 C 16.2 C
06.06.2004 11:00 16.8 C 63 % 1019.8 hPa 0.0 l/m 3.4 km/h (1 Bft) O 9.7 C 16.8 C
06.06.2004 12:00 18.3 C 55 % 1019.7 hPa 0.0 l/m 10.6 km/h (2 Bft) O-SO 9.2 C 18.3 C
06.06.2004 13:00 20.2 C 49 % 1019.1 hPa 0.0 l/m 11.9 km/h (2 Bft) O-SO 9.2 C 20.2 C
06.06.2004 14:00 20.6 C 46 % 1018.3 hPa 0.0 l/m 6.4 km/h (2 Bft) N 8.5 C 20.6 C
06.06.2004 15:00 22.4 C 38 % 1018.1 hPa 0.0 l/m 5.1 km/h (1 Bft) N-NO 7.3 C 22.4 C
06.06.2004 16:00 22.1 C 39 % 1018.1 hPa 0.0 l/m 6.1 km/h (2 Bft) NO 7.4 C 22.1 C
06.06.2004 17:00 22.1 C 38 % 1018.1 hPa 0.0 l/m 4.1 km/h (1 Bft) O-SO 7.3 C 22.1 C
06.06.2004 18:00 21.3 C 41 % 1018.2 hPa 0.0 l/m 3.7 km/h (1 Bft) N-NO 7.4 C 21.3 C
06.06.2004 19:00 20.8 C 43 % 1018.3 hPa 0.0 l/m 1.9 km/h (1 Bft) O-NO 7.7 C 20.8 C
06.06.2004 20:00 18.8 C 51 % 1018.6 hPa 0.0 l/m 0.1 km/h (0 Bft) N 8.4 C 18.8 C
06.06.2004 21:00 14.8 C 66 % 1019.1 hPa 0.0 l/m 0.2 km/h (0 Bft) O-NO 8.5 C 14.8 C
06.06.2004 22:00 12.4 C 79 % 1020.3 hPa 0.0 l/m 0.3 km/h (0 Bft) O 8.9 C 12.4 C
06.06.2004 23:00 11.6 C 87 % 1020.5 hPa 0.0 l/m 0.0 km/h (0 Bft) N 9.6 C 11.6 C
Min-Datum _ 06.06.04 06.06.04 05.06.04 - 31.05.04 - 06.06.04 06.06.04
_ Min-Zeit 04:50 17:14 13:53 - 03:29 - 17:14 07:11
Minimum _ 8.5 C 33 % 1015.5 hPa - 0.0 km/h (0 Bft) - 5.4 C 8.2 C
Max-Datum _ 06.06.04 31.05.04 03.06.04 02.06.04 05.06.04 - 03.06.04 06.06.04
_ Max-Zeit 15:41 05:41 22:50 19:00 15:50 - 14:08 15:41
Maximum _ 22.8 C 100 % 1025.7 hPa 8.3 l/m 38.9 km/h
NW (6 Bft)
- 15.4 C 22.8 C
Durchschnitt _ 14.4 C 88 % 1019.6 hPa #60.6 l/m 2.7 km/h (1 Bft) NW 12.0 C 14.4 C

Durchschnitt Minimum Temp.13.9 C
Durchschnitt Maximum Temp.15.0 C
© Kaiko 2004